Airfield :
LOGIN :

Register | Disclaimer

   EN    FR    IT 

 










Legend :    VFR   Marginal VFR   IFR   Intensive IFR   Very Intensive IFR
Visi :
Ceiling :
>= 8 km
>= 3000ft
5 to 8 km
1000 to 3000 ft
1500m to 5 km
500 to 1000 ft
800 to 1500m
200 to 500 ft
< 800m
< 200 ft
Symbols :   Thunderstorms  Fog  Heavy snow  Heavy precipitations  Wind > 20 kt
SIGMETs :     Misc.  Thunderstorms  Icing  Turbulence  Mountain Waves  Volcanic Ashes







- Airport Elevation : 699 ft
- IATA code : PAD


EDLP - Paderborn Lippstadt

CURRENT METAR :
  • 212350Z 12005KT CAVOK 15/06 Q1013

EXPIRED METARs :
  • 212320Z 13004KT CAVOK 16/06 Q1013
  • 212250Z 11005KT CAVOK 16/06 Q1013
  • 212220Z 12006KT CAVOK 17/06 Q1014
  • 212150Z 12006KT CAVOK 17/06 Q1014
  • 212120Z 12006KT CAVOK 17/06 Q1014

TAF TAF EDLP
Valid from the 22 at 00:00 until the 23 at 00:00 UTC


212300Z 2200/2224 12006KT CAVOK
PROB30
TEMPO 2218/2222 12011KT 4000 TSRA BKN040CB
No reported NOTAMs for that airfield.



MET'MAP, your aeronautical weather chart ! - Copyright ORBIFLY December 2007 - Disclaimer

ORBIFLY MET'MAP TEAM :

Programming & Development : Alexandra Zaïnal
Concept & Development : Baudouin d'Aumeries
Co-Development & Prog : Marc-Olivier Méhu
Technical & hardware support : Manuel Goepfert

Contact : metmap@orbifly.com




SOURCES & CREDITS :

   NOAA